createdAt,value
2022-11-20T00:01:24.498Z,98968.44
2022-11-20T00:03:52.573Z,98964.44
2022-11-20T00:06:20.152Z,98978.28
2022-11-20T00:08:47.260Z,98978.28
2022-11-20T00:11:20.054Z,98980.50
2022-11-20T00:13:48.631Z,98973.19
2022-11-20T00:16:17.765Z,98963.31
2022-11-20T00:18:45.058Z,98968.00
2022-11-20T00:21:17.177Z,98958.53
2022-11-20T00:23:45.375Z,98960.31
2022-11-20T00:26:14.503Z,98964.13
2022-11-20T00:28:41.749Z,98952.31
2022-11-20T00:31:11.533Z,98956.94
2022-11-20T00:33:38.274Z,98960.81
2022-11-20T00:36:26.449Z,98967.84
2022-11-20T00:38:54.444Z,98978.13
2022-11-20T00:41:21.503Z,98972.38
2022-11-20T00:43:48.176Z,98963.81
2022-11-20T00:46:18.191Z,98969.28
2022-11-20T00:48:45.949Z,98981.00
2022-11-20T00:51:14.612Z,98983.19
2022-11-20T00:53:41.585Z,98981.16
2022-11-20T00:56:12.222Z,98988.19
2022-11-20T00:58:40.361Z,98993.00
2022-11-20T01:01:09.930Z,98991.19
2022-11-20T01:03:38.940Z,98990.09
2022-11-20T01:06:12.128Z,99002.84
2022-11-20T01:08:39.753Z,99002.19
2022-11-20T01:11:12.213Z,99009.28
2022-11-20T01:13:40.250Z,99018.97
2022-11-20T01:16:11.044Z,99015.97
2022-11-20T01:18:39.657Z,99023.22
2022-11-20T01:21:09.223Z,99024.25
2022-11-20T01:23:37.783Z,99026.53
2022-11-20T01:26:06.928Z,99027.34
2022-11-20T01:28:34.112Z,99027.69
2022-11-20T01:31:01.064Z,99025.56
2022-11-20T01:33:28.188Z,99045.84
2022-11-20T01:36:03.646Z,99042.97
2022-11-20T01:38:30.223Z,99041.13
2022-11-20T01:40:57.102Z,99045.00
2022-11-20T01:43:24.808Z,99037.72
2022-11-20T01:46:02.540Z,99036.28
2022-11-20T01:48:35.237Z,99033.97
2022-11-20T01:51:03.600Z,99033.81
2022-11-20T01:53:35.833Z,99029.97
2022-11-20T01:56:05.954Z,99031.09
2022-11-20T01:58:36.594Z,99029.16
2022-11-20T02:01:04.694Z,99029.97
2022-11-20T02:03:32.053Z,99028.44
2022-11-20T02:06:11.638Z,99025.84
2022-11-20T02:08:39.694Z,99031.94
2022-11-20T02:11:06.546Z,99037.31
2022-11-20T02:13:44.268Z,99040.66
2022-11-20T02:16:31.278Z,99047.44
2022-11-20T02:19:01.399Z,99040.41
2022-11-20T02:21:49.381Z,99036.94
2022-11-20T02:24:21.046Z,99024.94
2022-11-20T02:26:52.946Z,99034.00
2022-11-20T02:29:27.731Z,99025.69
2022-11-20T02:31:56.539Z,99010.75
2022-11-20T02:34:23.332Z,99017.19
2022-11-20T02:36:52.733Z,99001.91
2022-11-20T02:39:21.992Z,98996.00
2022-11-20T02:41:48.801Z,98986.38
2022-11-20T02:44:15.496Z,98984.16
2022-11-20T02:46:42.071Z,98976.28
2022-11-20T02:49:08.785Z,98980.81
2022-11-20T02:51:35.483Z,98975.66
2022-11-20T02:54:02.025Z,98987.59
2022-11-20T02:56:28.728Z,98986.91
2022-11-20T02:58:56.698Z,98981.97
2022-11-20T03:01:23.483Z,98987.53
2022-11-20T03:03:50.188Z,98990.84
2022-11-20T03:06:17.749Z,98984.69
2022-11-20T03:08:44.804Z,98979.59
2022-11-20T03:11:11.533Z,98979.00
2022-11-20T03:13:38.396Z,98977.63
2022-11-20T03:16:16.676Z,98970.63
2022-11-20T03:18:43.852Z,98988.38
2022-11-20T03:21:11.897Z,98970.13
2022-11-20T03:23:39.169Z,98966.78
2022-11-20T03:26:26.066Z,98955.41
2022-11-20T03:28:57.618Z,98962.25
2022-11-20T03:31:26.918Z,98959.56
2022-11-20T03:33:53.680Z,98957.44
2022-11-20T03:36:21.452Z,98961.38
2022-11-20T03:38:49.102Z,98965.91
2022-11-20T03:41:20.942Z,98970.72
2022-11-20T03:43:58.465Z,98965.97
2022-11-20T03:46:25.749Z,98955.03
2022-11-20T03:48:52.476Z,98948.63
2022-11-20T03:51:24.199Z,98938.72
2022-11-20T03:53:53.026Z,98935.88
2022-11-20T03:56:23.273Z,98942.78
2022-11-20T03:58:49.802Z,98949.16
2022-11-20T04:01:19.964Z,98947.41
2022-11-20T04:03:47.263Z,98941.16
2022-11-20T04:06:22.853Z,98942.81
2022-11-20T04:08:53.535Z,98943.28
2022-11-20T04:11:21.976Z,98944.34
2022-11-20T04:13:51.644Z,98933.03
2022-11-20T04:16:18.994Z,98929.84
2022-11-20T04:18:45.908Z,98926.53
2022-11-20T04:21:12.922Z,98913.09
2022-11-20T04:23:40.144Z,98900.00
2022-11-20T04:26:09.492Z,98907.09
2022-11-20T04:28:36.674Z,98912.88
2022-11-20T04:31:08.010Z,98916.13
2022-11-20T04:33:35.726Z,98908.63
2022-11-20T04:36:12.179Z,98906.34
2022-11-20T04:38:39.340Z,98896.25
2022-11-20T04:41:08.284Z,98923.81
2022-11-20T04:43:35.510Z,98917.44
2022-11-20T04:46:02.432Z,98914.38
2022-11-20T04:48:30.710Z,98906.69
2022-11-20T04:50:57.783Z,98897.44
2022-11-20T04:53:24.753Z,98889.00
2022-11-20T04:55:51.312Z,98880.34
2022-11-20T04:58:18.212Z,98881.09
2022-11-20T05:00:44.802Z,98894.31
2022-11-20T05:03:11.462Z,98900.72
2022-11-20T05:05:38.165Z,98899.00
2022-11-20T05:08:05.035Z,98894.06
2022-11-20T05:10:31.579Z,98897.47
2022-11-20T05:12:58.671Z,98887.72
2022-11-20T05:15:25.416Z,98899.97
2022-11-20T05:17:53.356Z,98898.03
2022-11-20T05:20:20.690Z,98892.19
2022-11-20T05:22:47.217Z,98901.25
2022-11-20T05:25:13.919Z,98894.53
2022-11-20T05:27:40.478Z,98895.25
2022-11-20T05:30:08.552Z,98892.19
2022-11-20T05:32:35.108Z,98892.69
2022-11-20T05:35:01.757Z,98898.97
2022-11-20T05:37:28.276Z,98887.09
2022-11-20T05:39:54.787Z,98876.06
2022-11-20T05:42:33.183Z,98879.69
2022-11-20T05:45:05.522Z,98880.97
2022-11-20T05:47:34.104Z,98882.88
2022-11-20T05:50:01.376Z,98875.84
2022-11-20T05:52:30.915Z,98879.31
2022-11-20T05:54:58.290Z,98882.88
2022-11-20T05:57:25.048Z,98890.75
2022-11-20T05:59:51.605Z,98889.56
2022-11-20T06:02:18.407Z,98897.25
2022-11-20T06:04:45.078Z,98895.69
2022-11-20T06:07:11.707Z,98904.47
2022-11-20T06:09:38.277Z,98893.53
2022-11-20T06:12:05.180Z,98910.25
2022-11-20T06:14:31.853Z,98921.94
2022-11-20T06:16:58.458Z,98931.50
2022-11-20T06:19:25.071Z,98941.59
2022-11-20T06:21:51.855Z,98943.97
2022-11-20T06:24:18.735Z,98952.44
2022-11-20T06:26:45.880Z,98952.25
2022-11-20T06:29:13.053Z,98947.69
2022-11-20T06:31:40.134Z,98960.19
2022-11-20T06:34:07.784Z,98958.31
2022-11-20T06:36:34.700Z,98967.44
2022-11-20T06:39:01.730Z,98975.25
2022-11-20T06:41:29.374Z,98968.63
2022-11-20T06:43:55.990Z,98964.50
2022-11-20T06:46:23.153Z,98964.72
2022-11-20T06:48:50.478Z,98968.06
2022-11-20T06:51:17.826Z,98975.59
2022-11-20T06:53:44.473Z,98981.03
2022-11-20T06:56:11.080Z,98969.84
2022-11-20T06:58:38.087Z,98974.94
2022-11-20T07:01:07.401Z,98977.03
2022-11-20T07:03:34.250Z,98983.47
2022-11-20T07:06:02.198Z,98989.59
2022-11-20T07:08:29.332Z,98995.25
2022-11-20T07:11:04.644Z,98990.91
2022-11-20T07:13:31.976Z,98993.34
2022-11-20T07:16:07.677Z,98997.66
2022-11-20T07:18:34.653Z,98992.25
2022-11-20T07:21:06.175Z,98991.13
2022-11-20T07:23:33.117Z,99005.88
2022-11-20T07:26:04.092Z,99014.88
2022-11-20T07:28:30.578Z,99015.00
2022-11-20T07:30:57.176Z,99020.94
2022-11-20T07:33:24.280Z,99019.03
2022-11-20T07:35:50.790Z,99010.84
2022-11-20T07:38:17.491Z,99012.75
2022-11-20T07:40:44.221Z,99007.97
2022-11-20T07:43:11.180Z,99025.06
2022-11-20T07:45:37.804Z,99024.25
2022-11-20T07:48:04.665Z,99028.91
2022-11-20T07:50:31.267Z,99013.88
2022-11-20T07:53:07.736Z,99015.25
2022-11-20T07:55:34.704Z,99013.66
2022-11-20T07:58:01.294Z,99015.09
2022-11-20T08:00:28.035Z,99024.84
2022-11-20T08:02:54.974Z,99020.06
2022-11-20T08:05:21.523Z,99026.78
2022-11-20T08:07:48.496Z,99022.13
2022-11-20T08:10:17.235Z,99022.47
2022-11-20T08:13:07.525Z,99013.97
2022-11-20T08:15:34.607Z,99016.53
2022-11-20T08:20:56.559Z,99022.59
2022-11-20T08:23:23.820Z,99025.72
2022-11-20T08:25:51.112Z,99032.38
2022-11-20T08:28:21.427Z,99045.44
2022-11-20T08:30:49.264Z,99040.53
2022-11-20T08:33:15.857Z,99044.19
2022-11-20T08:35:43.555Z,99051.94
2022-11-20T08:38:10.687Z,99035.25
2022-11-20T08:40:37.284Z,99043.81
2022-11-20T08:43:03.972Z,99043.72
2022-11-20T08:45:33.981Z,99037.72
2022-11-20T08:48:02.643Z,99039.09
2022-11-20T08:50:29.373Z,99022.94
2022-11-20T08:52:55.976Z,99030.53
2022-11-20T08:55:22.516Z,99021.81
2022-11-20T08:57:50.956Z,99029.63
2022-11-20T09:00:18.228Z,99023.38
2022-11-20T09:02:44.821Z,99022.97
2022-11-20T09:05:11.397Z,99023.38
2022-11-20T09:07:38.022Z,99033.34
2022-11-20T09:10:23.003Z,99030.38
2022-11-20T09:12:50.529Z,99032.63
2022-11-20T09:15:17.098Z,99031.88
2022-11-20T09:17:43.638Z,99025.75
2022-11-20T09:20:10.722Z,99034.16
2022-11-20T09:22:40.786Z,99031.81
2022-11-20T09:25:07.663Z,99037.13
2022-11-20T09:27:34.294Z,99030.16
2022-11-20T09:30:00.884Z,99035.34
2022-11-20T09:32:27.411Z,99028.25
2022-11-20T09:34:53.904Z,99028.59
2022-11-20T09:37:20.467Z,99027.50
2022-11-20T09:39:46.970Z,99034.56
2022-11-20T09:42:31.485Z,99024.59
2022-11-20T09:45:19.143Z,99009.56
2022-11-20T09:48:02.441Z,99015.81
2022-11-20T09:50:56.943Z,99011.06
2022-11-20T09:53:26.231Z,99014.34
2022-11-20T09:55:52.857Z,99002.03
2022-11-20T09:58:33.380Z,98991.44
2022-11-20T10:01:11.627Z,98994.88
2022-11-20T10:04:05.934Z,98999.16
2022-11-20T10:06:33.607Z,99006.00
2022-11-20T10:09:20.612Z,99005.22
2022-11-20T10:12:05.896Z,99004.34
2022-11-20T10:14:48.494Z,99009.16
2022-11-20T10:17:34.931Z,98995.38
2022-11-20T10:20:26.623Z,99001.13
2022-11-20T10:23:15.037Z,98992.25
2022-11-20T10:25:50.615Z,98990.44
2022-11-20T10:28:26.843Z,98989.13
2022-11-20T10:31:04.891Z,98989.44
2022-11-20T10:33:50.417Z,98982.59
2022-11-20T10:36:42.921Z,98989.91
2022-11-20T10:39:28.015Z,98985.09
2022-11-20T10:41:54.816Z,98990.00
2022-11-20T10:44:45.236Z,98982.59
2022-11-20T10:47:17.417Z,98985.63
2022-11-20T10:49:49.476Z,98984.25
2022-11-20T10:52:48.780Z,98974.38
2022-11-20T10:55:40.169Z,98976.97
2022-11-20T10:58:36.323Z,98967.69
2022-11-20T11:01:24.366Z,98971.44
2022-11-20T11:03:54.343Z,98976.72
2022-11-20T11:06:43.030Z,98974.88
2022-11-20T11:09:20.391Z,98976.88
2022-11-20T11:11:47.252Z,98967.13
2022-11-20T11:14:16.117Z,98962.09
2022-11-20T11:16:57.272Z,98958.78
2022-11-20T11:19:24.798Z,98953.63
2022-11-20T11:21:55.781Z,98954.00
2022-11-20T11:24:45.737Z,98946.75
2022-11-20T11:27:18.023Z,98946.06
2022-11-20T11:29:45.438Z,98937.00
2022-11-20T11:32:21.580Z,98938.16
2022-11-20T11:35:25.217Z,98936.72
2022-11-20T11:37:55.070Z,98937.75
2022-11-20T11:40:24.620Z,98938.09
2022-11-20T11:43:02.297Z,98927.72
2022-11-20T11:45:29.531Z,98938.06
2022-11-20T11:47:59.603Z,98932.00
2022-11-20T11:50:28.186Z,98926.91
2022-11-20T11:53:13.162Z,98939.88
2022-11-20T11:55:51.648Z,98932.25
2022-11-20T11:58:35.823Z,98935.66
2022-11-20T12:01:28.841Z,98943.00
2022-11-20T12:04:11.300Z,98926.78
2022-11-20T12:06:40.234Z,98931.59
2022-11-20T12:09:11.172Z,98934.84
2022-11-20T12:12:05.983Z,98930.13
2022-11-20T12:14:40.378Z,98928.97
2022-11-20T12:17:11.861Z,98929.63
2022-11-20T12:19:38.585Z,98925.25
2022-11-20T12:22:41.924Z,98921.22
2022-11-20T12:25:16.748Z,98925.44
2022-11-20T12:28:07.216Z,98924.56
2022-11-20T12:30:39.584Z,98919.78
2022-11-20T12:33:18.431Z,98917.25
2022-11-20T12:35:57.146Z,98923.94
2022-11-20T12:38:49.295Z,98911.44
2022-11-20T12:41:40.297Z,98916.56
2022-11-20T12:45:00.043Z,98912.19
2022-11-20T12:48:00.341Z,98918.41
2022-11-20T12:51:15.945Z,98908.66
2022-11-20T12:53:45.490Z,98899.84
2022-11-20T12:56:17.720Z,98899.38
2022-11-20T12:59:08.688Z,98896.78
2022-11-20T13:01:51.339Z,98906.34
2022-11-20T13:04:31.350Z,98910.31
2022-11-20T13:06:58.687Z,98902.34
2022-11-20T13:09:26.003Z,98906.69
2022-11-20T13:12:09.857Z,98905.97
2022-11-20T13:14:46.189Z,98916.22
2022-11-20T13:17:19.068Z,98910.97
2022-11-20T13:19:57.073Z,98906.06
2022-11-20T13:22:44.224Z,98906.59
2022-11-20T13:25:16.294Z,98906.81
2022-11-20T13:27:50.156Z,98899.41
2022-11-20T13:30:19.835Z,98895.16
2022-11-20T13:33:09.490Z,98902.25
2022-11-20T13:35:41.405Z,98897.47
2022-11-20T13:38:12.426Z,98895.22
2022-11-20T13:40:52.934Z,98891.13
2022-11-20T13:43:30.080Z,98886.78
2022-11-20T13:46:06.180Z,98878.47
2022-11-20T13:48:42.366Z,98880.69
2022-11-20T13:51:27.539Z,98876.34
2022-11-20T13:54:06.106Z,98874.84
2022-11-20T13:56:48.939Z,98866.63
2022-11-20T13:59:47.278Z,98871.22
2022-11-20T14:02:23.122Z,98868.56
2022-11-20T14:04:53.161Z,98873.06
2022-11-20T14:07:24.699Z,98869.41
2022-11-20T14:09:58.828Z,98883.13
2022-11-20T14:12:35.260Z,98872.16
2022-11-20T14:15:01.961Z,98875.94
2022-11-20T14:17:36.386Z,98884.88
2022-11-20T14:20:06.022Z,98875.44
2022-11-20T14:22:32.733Z,98879.13
2022-11-20T14:25:13.049Z,98885.25
2022-11-20T14:27:42.849Z,98877.50
2022-11-20T14:30:18.098Z,98871.84
2022-11-20T14:32:45.963Z,98866.03
2022-11-20T14:35:22.672Z,98868.78
2022-11-20T14:37:49.416Z,98864.53
2022-11-20T14:40:28.228Z,98862.94
2022-11-20T14:42:54.960Z,98852.47
2022-11-20T14:45:22.962Z,98857.84
2022-11-20T14:47:50.431Z,98853.53
2022-11-20T14:50:24.804Z,98849.81
2022-11-20T14:53:09.474Z,98847.06
2022-11-20T14:55:39.640Z,98850.53
2022-11-20T14:58:21.239Z,98841.31
2022-11-20T15:00:59.999Z,98828.41
2022-11-20T15:03:38.298Z,98832.53
2022-11-20T15:06:07.148Z,98847.69
2022-11-20T15:08:35.034Z,98837.50
2022-11-20T15:11:01.699Z,98833.59
2022-11-20T15:13:31.940Z,98842.44
2022-11-20T15:16:02.634Z,98846.22
2022-11-20T15:18:33.332Z,98837.16
2022-11-20T15:21:04.319Z,98829.03
2022-11-20T15:23:30.929Z,98825.84
2022-11-20T15:25:57.692Z,98826.47
2022-11-20T15:28:32.738Z,98818.69
2022-11-20T15:30:59.436Z,98820.59
2022-11-20T15:33:25.964Z,98808.63
2022-11-20T15:35:52.754Z,98822.13
2022-11-20T15:38:19.365Z,98822.81
2022-11-20T15:40:45.913Z,98821.25
2022-11-20T15:43:13.858Z,98828.59
2022-11-20T15:45:50.545Z,98835.13
2022-11-20T15:48:27.402Z,98832.41
2022-11-20T15:51:12.341Z,98827.44
2022-11-20T15:53:41.136Z,98832.34
2022-11-20T15:56:12.660Z,98820.38
2022-11-20T15:58:39.701Z,98827.72
2022-11-20T16:01:06.416Z,98830.63
2022-11-20T16:03:32.971Z,98827.66
2022-11-20T16:05:59.511Z,98828.47
2022-11-20T16:08:26.435Z,98825.91
2022-11-20T16:10:53.007Z,98819.50
2022-11-20T16:13:37.847Z,98819.22
2022-11-20T16:16:12.689Z,98824.06
2022-11-20T16:18:39.299Z,98817.34
2022-11-20T16:21:11.574Z,98827.72
2022-11-20T16:23:38.123Z,98829.47
2022-11-20T16:26:12.193Z,98841.78
2022-11-20T16:28:38.746Z,98840.28
2022-11-20T16:31:13.501Z,98849.25
2022-11-20T16:33:40.288Z,98856.00
2022-11-20T16:36:15.115Z,98849.47
2022-11-20T16:38:42.194Z,98858.63
2022-11-20T16:41:18.591Z,98859.25
2022-11-20T16:43:50.498Z,98856.06
2022-11-20T16:46:19.173Z,98853.66
2022-11-20T16:48:46.774Z,98851.44
2022-11-20T16:51:13.366Z,98851.38
2022-11-20T16:53:40.846Z,98845.94
2022-11-20T16:56:17.342Z,98842.91
2022-11-20T16:58:44.887Z,98839.41
2022-11-20T17:01:14.625Z,98842.06
2022-11-20T17:03:42.728Z,98842.41
2022-11-20T17:06:14.506Z,98842.41
2022-11-20T17:08:41.480Z,98839.09
2022-11-20T17:11:09.685Z,98831.91
2022-11-20T17:13:39.974Z,98828.13
2022-11-20T17:16:09.493Z,98837.59
2022-11-20T17:18:36.553Z,98827.38
2022-11-20T17:21:05.516Z,98819.25
2022-11-20T17:23:33.423Z,98814.75
2022-11-20T17:26:08.310Z,98821.47
2022-11-20T17:28:35.804Z,98825.28
2022-11-20T17:31:08.354Z,98810.91
2022-11-20T17:33:36.892Z,98813.34
2022-11-20T17:36:04.816Z,98808.84
2022-11-20T17:38:31.501Z,98802.63
2022-11-20T17:41:06.335Z,98806.63
2022-11-20T17:43:35.882Z,98815.22
2022-11-20T17:46:14.440Z,98804.84
2022-11-20T17:48:45.143Z,98799.13
2022-11-20T17:51:24.650Z,98803.91
2022-11-20T17:53:53.850Z,98806.63
2022-11-20T17:56:40.852Z,98799.44
2022-11-20T17:59:10.985Z,98810.94
2022-11-20T18:01:39.376Z,98802.16
2022-11-20T18:04:06.564Z,98800.25
2022-11-20T18:06:33.506Z,98801.19
2022-11-20T18:09:01.579Z,98796.88
2022-11-20T18:11:33.720Z,98797.69
2022-11-20T18:14:20.569Z,98801.34
2022-11-20T18:16:51.966Z,98785.88
2022-11-20T18:19:24.579Z,98798.00
2022-11-20T18:21:51.317Z,98789.38
2022-11-20T18:24:18.271Z,98780.94
2022-11-20T18:26:45.162Z,98778.34
2022-11-20T18:29:13.748Z,98772.63
2022-11-20T18:31:41.493Z,98763.03
2022-11-20T18:34:12.257Z,98760.97
2022-11-20T18:36:38.892Z,98757.25
2022-11-20T18:39:05.937Z,98751.22
2022-11-20T18:41:51.305Z,98748.66
2022-11-20T18:44:42.058Z,98749.78
2022-11-20T18:47:14.544Z,98738.13
2022-11-20T18:49:43.102Z,98754.22
2022-11-20T18:52:09.678Z,98748.19
2022-11-20T18:54:37.087Z,98737.63
2022-11-20T18:57:05.310Z,98748.00
2022-11-20T18:59:32.260Z,98740.34
2022-11-20T19:01:59.064Z,98738.88
2022-11-20T19:04:26.372Z,98732.22
2022-11-20T19:06:56.220Z,98748.47
2022-11-20T19:09:24.181Z,98755.16
2022-11-20T19:11:51.601Z,98757.56
2022-11-20T19:14:18.592Z,98762.38
2022-11-20T19:16:45.267Z,98770.19
2022-11-20T19:19:12.004Z,98768.72
2022-11-20T19:21:38.635Z,98771.56
2022-11-20T19:24:05.563Z,98774.94
2022-11-20T19:26:35.540Z,98782.13
2022-11-20T19:29:03.603Z,98779.88
2022-11-20T19:31:30.451Z,98778.78
2022-11-20T19:34:02.509Z,98782.13
2022-11-20T19:36:34.758Z,98784.34
2022-11-20T19:39:02.381Z,98782.78
2022-11-20T19:41:31.466Z,98770.00
2022-11-20T19:43:59.844Z,98777.34
2022-11-20T19:46:28.272Z,98790.25
2022-11-20T19:48:55.596Z,98783.25
2022-11-20T19:51:29.868Z,98784.97
2022-11-20T19:53:57.651Z,98792.16
2022-11-20T19:56:25.612Z,98803.47
2022-11-20T19:58:56.190Z,98812.09
2022-11-20T20:01:28.805Z,98809.13
2022-11-20T20:03:56.796Z,98804.91
2022-11-20T20:06:26.316Z,98797.81
2022-11-20T20:09:09.254Z,98797.34
2022-11-20T20:11:36.751Z,98793.34
2022-11-20T20:14:08.665Z,98791.81
2022-11-20T20:16:35.582Z,98791.84
2022-11-20T20:19:03.737Z,98785.78
2022-11-20T20:21:31.793Z,98794.41
2022-11-20T20:24:00.864Z,98789.13
2022-11-20T20:26:29.661Z,98791.06
2022-11-20T20:28:56.435Z,98787.38
2022-11-20T20:31:27.099Z,98796.59
2022-11-20T20:33:54.434Z,98794.03
2022-11-20T20:36:22.968Z,98799.09
2022-11-20T20:38:57.328Z,98801.16
2022-11-20T20:41:25.085Z,98798.16
2022-11-20T20:44:10.908Z,98794.34
2022-11-20T20:46:37.634Z,98787.47
2022-11-20T20:49:05.416Z,98786.50
2022-11-20T20:51:32.011Z,98791.56
2022-11-20T20:53:59.377Z,98776.31
2022-11-20T20:56:26.356Z,98788.47
2022-11-20T20:58:52.901Z,98774.47
2022-11-20T21:01:20.840Z,98768.63
2022-11-20T21:03:47.455Z,98774.81
2022-11-20T21:06:14.633Z,98784.22
2022-11-20T21:08:43.605Z,98776.84
2022-11-20T21:11:16.544Z,98777.19
2022-11-20T21:13:44.669Z,98772.56
2022-11-20T21:16:12.566Z,98778.94
2022-11-20T21:18:39.176Z,98768.72
2022-11-20T21:21:26.523Z,98768.41
2022-11-20T21:23:53.753Z,98778.78
2022-11-20T21:26:21.259Z,98776.69
2022-11-20T21:28:49.973Z,98769.97
2022-11-20T21:31:27.320Z,98773.50
2022-11-20T21:33:55.958Z,98778.28
2022-11-20T21:36:25.814Z,98787.84
2022-11-20T21:38:56.932Z,98781.56
2022-11-20T21:41:24.942Z,98784.59
2022-11-20T21:44:23.545Z,98779.22
2022-11-20T21:46:41.685Z,98779.22
2022-11-20T21:49:08.472Z,98775.38
2022-11-20T21:51:35.379Z,98778.91
2022-11-20T21:54:02.117Z,98781.19
2022-11-20T21:56:28.641Z,98784.53
2022-11-20T21:58:55.538Z,98775.94
2022-11-20T22:01:23.535Z,98792.03
2022-11-20T22:03:52.969Z,98797.22
2022-11-20T22:06:21.391Z,98805.91
2022-11-20T22:08:48.984Z,98798.16
2022-11-20T22:11:18.027Z,98796.47
2022-11-20T22:14:03.063Z,98790.97
2022-11-20T22:16:30.114Z,98787.03
2022-11-20T22:18:58.061Z,98782.09
2022-11-20T22:21:28.091Z,98786.44
2022-11-20T22:23:55.266Z,98779.63
2022-11-20T22:26:24.206Z,98764.31
2022-11-20T22:28:53.620Z,98772.13
2022-11-20T22:31:21.770Z,98770.88
2022-11-20T22:33:48.677Z,98778.19
2022-11-20T22:36:17.535Z,98788.91
2022-11-20T22:38:44.264Z,98789.03
2022-11-20T22:41:18.686Z,98783.84
2022-11-20T22:43:45.972Z,98780.44
2022-11-20T22:46:15.536Z,98779.81
2022-11-20T22:48:49.715Z,98774.03
2022-11-20T22:51:17.868Z,98776.13
2022-11-20T22:53:44.710Z,98767.09
2022-11-20T22:56:15.328Z,98765.97
2022-11-20T22:58:44.798Z,98772.81
2022-11-20T23:01:16.403Z,98775.19
2022-11-20T23:03:45.396Z,98771.53
2022-11-20T23:06:13.209Z,98783.91
2022-11-20T23:08:41.642Z,98772.00
2022-11-20T23:11:13.639Z,98770.00
2022-11-20T23:13:41.191Z,98758.31
2022-11-20T23:16:11.220Z,98757.59
2022-11-20T23:18:38.269Z,98765.28
2022-11-20T23:21:10.751Z,98752.56
2022-11-20T23:23:37.699Z,98746.50
2022-11-20T23:26:09.356Z,98736.31
2022-11-20T23:28:36.811Z,98735.66
2022-11-20T23:31:03.998Z,98732.16
2022-11-20T23:33:30.895Z,98715.09
2022-11-20T23:35:57.762Z,98719.06
2022-11-20T23:38:24.303Z,98712.72
2022-11-20T23:40:52.014Z,98715.13
2022-11-20T23:43:20.718Z,98703.63
2022-11-20T23:45:52.107Z,98695.84
2022-11-20T23:48:20.117Z,98685.94
2022-11-20T23:50:46.900Z,98677.19
2022-11-20T23:53:14.671Z,98680.53
2022-11-20T23:55:46.605Z,98682.59
2022-11-20T23:58:13.931Z,98678.09
